Time;durP1;ratioP1;P1;durP2;ratioP2;P2;SDS_P1;SDS_P2;PMS_P1;PMS_P2;Temp;Humidity;BMP_temperature;BMP_pressure;BME280_temperature;BME280_humidity;BME280_pressure;Samples;Min_cycle;Max_cycle;Signal;HPM_P1;HPM_P2
2024/01/22 00:01:27;;;;;;;70.17;31.30;;;;;;;;;;4382853;32;317558;-76
2024/01/22 00:03:56;;;;;;;77.07;32.90;;;;;;;;;;4383771;32;317405;-76
2024/01/22 00:06:24;;;;;;;76.27;34.07;;;;;;;;;;4384398;32;351139;-76
2024/01/22 00:08:51;;;;;;;75.70;33.70;;;;;;;;;;4395438;32;318349;-76
2024/01/22 00:11:29;;;;;;;73.27;31.47;;;;;;;;;;4399589;32;317634;-76
2024/01/22 00:13:57;;;;;;;61.87;26.17;;;;;;;;;;4408479;32;318109;-76
2024/01/22 00:16:24;;;;;;;87.63;35.00;;;;;;;;;;4392674;32;317476;-76
2024/01/22 00:18:52;;;;;;;68.17;32.00;;;;;;;;;;4409689;32;317785;-76
2024/01/22 00:21:27;;;;;;;72.37;33.60;;;;;;;;;;4398496;32;318173;-76
2024/01/22 00:23:58;;;;;;;62.13;28.40;;;;;;;;;;4413068;32;332764;-76
2024/01/22 00:26:25;;;;;;;57.17;29.00;;;;;;;;;;4390709;32;318192;-76
2024/01/22 00:28:52;;;;;;;52.40;24.13;;;;;;;;;;4407611;32;323675;-76
2024/01/22 00:31:23;;;;;;;53.23;26.50;;;;;;;;;;4398430;32;318090;-76
2024/01/22 00:33:52;;;;;;;42.73;21.33;;;;;;;;;;4373854;32;316691;-76
2024/01/22 00:36:19;;;;;;;39.27;19.17;;;;;;;;;;4366354;32;318358;-76
2024/01/22 00:38:49;;;;;;;39.40;18.80;;;;;;;;;;4394695;32;318318;-76
2024/01/22 00:41:17;;;;;;;25.43;13.57;;;;;;;;;;4390668;32;318196;-76
2024/01/22 00:43:44;;;;;;;40.67;17.30;;;;;;;;;;4391999;32;317569;-76
2024/01/22 00:46:11;;;;;;;33.27;16.00;;;;;;;;;;4402437;32;317663;-76
2024/01/22 00:48:41;;;;;;;31.43;15.17;;;;;;;;;;4387017;32;417525;-76
2024/01/22 00:51:11;;;;;;;33.83;16.07;;;;;;;;;;4406423;32;317815;-77
2024/01/22 00:53:39;;;;;;;24.20;13.97;;;;;;;;;;4395026;32;417592;-76
2024/01/22 00:56:11;;;;;;;23.20;12.57;;;;;;;;;;4397659;32;318317;-76
2024/01/22 00:58:48;;;;;;;43.90;20.30;;;;;;;;;;4361730;32;418741;-76
2024/01/22 01:01:30;;;;;;;48.63;23.50;;;;;;;;;;4383107;32;318474;-76
2024/01/22 01:03:58;;;;;;;59.20;31.63;;;;;;;;;;4391960;32;317633;-76
2024/01/22 01:06:27;;;;;;;47.53;22.93;;;;;;;;;;4363161;32;317647;-77
2024/01/22 01:08:57;;;;;;;39.83;18.10;;;;;;;;;;4376001;32;341886;-77
2024/01/22 01:11:28;;;;;;;24.40;14.00;;;;;;;;;;4356487;32;317609;-77
2024/01/22 01:13:57;;;;;;;28.43;14.07;;;;;;;;;;4385226;32;319061;-77
2024/01/22 01:16:27;;;;;;;27.63;14.33;;;;;;;;;;4361512;32;318025;-77
2024/01/22 01:18:55;;;;;;;29.30;13.40;;;;;;;;;;4390060;32;316579;-77
2024/01/22 01:21:22;;;;;;;46.80;21.07;;;;;;;;;;4371851;32;318089;-77
2024/01/22 01:23:51;;;;;;;69.43;31.67;;;;;;;;;;4405934;32;318406;-77
2024/01/22 01:26:17;;;;;;;97.37;47.40;;;;;;;;;;4396748;32;318276;-78
2024/01/22 01:28:48;;;;;;;100.67;45.93;;;;;;;;;;4399491;32;318007;-77
2024/01/22 01:31:15;;;;;;;91.90;40.67;;;;;;;;;;4398744;32;319655;-77
2024/01/22 01:33:42;;;;;;;64.47;33.23;;;;;;;;;;4408480;32;318486;-77
2024/01/22 01:36:09;;;;;;;66.70;33.03;;;;;;;;;;4404437;32;317692;-77
2024/01/22 01:38:36;;;;;;;62.23;30.07;;;;;;;;;;4388771;32;318246;-77
2024/01/22 01:41:04;;;;;;;77.27;34.77;;;;;;;;;;4407212;32;318237;-77
2024/01/22 01:43:32;;;;;;;71.53;32.07;;;;;;;;;;4398458;32;318151;-77
2024/01/22 01:46:00;;;;;;;59.33;27.33;;;;;;;;;;4408056;32;318433;-77
2024/01/22 01:48:27;;;;;;;51.73;25.00;;;;;;;;;;4391683;32;318278;-77
2024/01/22 01:50:56;;;;;;;75.87;34.97;;;;;;;;;;4409829;32;317524;-77
2024/01/22 01:53:26;;;;;;;119.17;57.50;;;;;;;;;;4377881;32;317904;-77
2024/01/22 01:56:03;;;;;;;110.40;50.47;;;;;;;;;;4393569;32;318752;-77
2024/01/22 01:58:30;;;;;;;56.43;31.17;;;;;;;;;;4369951;32;319224;-77
2024/01/22 02:01:01;;;;;;;66.03;30.87;;;;;;;;;;4409831;32;318312;-77
2024/01/22 02:03:29;;;;;;;63.90;29.77;;;;;;;;;;4399823;32;317569;-77
2024/01/22 02:05:57;;;;;;;59.87;28.80;;;;;;;;;;4406935;32;318284;-77
2024/01/22 02:08:24;;;;;;;54.07;25.97;;;;;;;;;;4391218;32;318172;-77
2024/01/22 02:10:50;;;;;;;48.23;24.60;;;;;;;;;;4368324;32;319605;-77
2024/01/22 02:13:19;;;;;;;54.20;24.77;;;;;;;;;;4351990;32;318370;-77
2024/01/22 02:15:47;;;;;;;70.13;33.70;;;;;;;;;;4362216;32;318009;-77
2024/01/22 02:18:18;;;;;;;75.47;36.63;;;;;;;;;;4350656;32;317738;-77
2024/01/22 02:20:45;;;;;;;83.60;38.40;;;;;;;;;;4353746;32;318252;-77
2024/01/22 02:23:13;;;;;;;84.97;40.13;;;;;;;;;;4361032;32;318201;-77
2024/01/22 02:25:40;;;;;;;77.47;37.33;;;;;;;;;;4348509;32;318108;-77
2024/01/22 02:28:08;;;;;;;83.23;38.23;;;;;;;;;;4347993;32;318280;-77
2024/01/22 02:30:34;;;;;;;94.20;40.77;;;;;;;;;;4331079;32;318053;-77
2024/01/22 02:33:01;;;;;;;72.57;36.00;;;;;;;;;;4345914;32;318248;-76
2024/01/22 02:35:28;;;;;;;79.97;36.57;;;;;;;;;;4338948;32;318599;-77
2024/01/22 02:37:55;;;;;;;56.07;25.37;;;;;;;;;;4346412;32;318177;-77
2024/01/22 02:40:23;;;;;;;47.63;21.93;;;;;;;;;;4340331;32;318164;-76
2024/01/22 02:42:50;;;;;;;56.83;25.10;;;;;;;;;;4362328;32;317351;-76
2024/01/22 02:45:18;;;;;;;46.47;22.40;;;;;;;;;;4353444;32;318174;-77
2024/01/22 02:47:47;;;;;;;56.00;28.07;;;;;;;;;;4362377;32;318233;-76
2024/01/22 02:50:14;;;;;;;52.90;28.77;;;;;;;;;;4352893;32;343453;-75
2024/01/22 02:52:41;;;;;;;53.80;27.60;;;;;;;;;;4356455;32;319394;-76
2024/01/22 02:55:09;;;;;;;60.63;29.90;;;;;;;;;;4362452;32;319422;-76
2024/01/22 02:57:40;;;;;;;65.37;30.13;;;;;;;;;;4350990;32;352623;-76
2024/01/22 03:00:09;;;;;;;59.33;28.27;;;;;;;;;;4360633;32;318435;-76
2024/01/22 03:02:38;;;;;;;61.07;28.23;;;;;;;;;;4342851;32;319098;-76
2024/01/22 03:05:11;;;;;;;35.57;18.23;;;;;;;;;;4352249;32;319108;-76
2024/01/22 03:07:39;;;;;;;36.53;17.17;;;;;;;;;;4315375;32;404672;-77
2024/01/22 03:10:07;;;;;;;33.90;18.80;;;;;;;;;;4343631;32;319586;-76
2024/01/22 03:12:33;;;;;;;36.03;17.70;;;;;;;;;;4328317;32;319888;-75
2024/01/22 03:15:02;;;;;;;42.03;19.00;;;;;;;;;;4350360;32;319233;-76
2024/01/22 03:17:31;;;;;;;40.50;21.40;;;;;;;;;;4345106;32;324924;-76
2024/01/22 03:19:57;;;;;;;32.53;17.30;;;;;;;;;;4343535;32;352843;-76
2024/01/22 03:22:24;;;;;;;31.27;16.87;;;;;;;;;;4340317;32;319242;-76
2024/01/22 03:24:52;;;;;;;28.07;15.30;;;;;;;;;;4362566;32;319018;-77
2024/01/22 03:27:20;;;;;;;33.77;15.70;;;;;;;;;;4351316;32;318412;-76
2024/01/22 03:29:48;;;;;;;27.67;15.27;;;;;;;;;;4362362;32;319130;-76
2024/01/22 03:32:23;;;;;;;29.87;13.80;;;;;;;;;;4357081;32;318749;-77
2024/01/22 03:34:52;;;;;;;27.20;14.40;;;;;;;;;;4347290;32;317770;-77
2024/01/22 03:37:20;;;;;;;20.70;10.70;;;;;;;;;;4380267;32;318530;-76
2024/01/22 03:39:49;;;;;;;16.43;10.93;;;;;;;;;;4401749;32;317950;-77
2024/01/22 03:42:17;;;;;;;23.87;11.47;;;;;;;;;;4385265;32;318737;-76
2024/01/22 03:44:44;;;;;;;26.67;13.53;;;;;;;;;;4394866;32;318761;-76
2024/01/22 03:47:12;;;;;;;36.63;16.63;;;;;;;;;;4384955;32;317738;-76
2024/01/22 03:49:40;;;;;;;38.17;20.27;;;;;;;;;;4334796;32;418714;-76
2024/01/22 03:52:07;;;;;;;41.77;22.67;;;;;;;;;;4349049;32;319298;-76
2024/01/22 03:54:34;;;;;;;54.57;26.83;;;;;;;;;;4331114;32;319240;-77
2024/01/22 03:57:06;;;;;;;46.00;24.07;;;;;;;;;;4345613;32;350604;-76
2024/01/22 03:59:33;;;;;;;65.97;35.27;;;;;;;;;;4338388;32;319412;-76
2024/01/22 04:02:00;;;;;;;70.37;34.80;;;;;;;;;;4349379;32;318990;-76
2024/01/22 04:04:28;;;;;;;55.40;27.83;;;;;;;;;;4344341;32;319883;-76
2024/01/22 04:06:57;;;;;;;50.10;26.37;;;;;;;;;;4354313;32;318922;-77
2024/01/22 04:09:24;;;;;;;42.37;24.37;;;;;;;;;;4337118;32;318807;-77
2024/01/22 04:11:51;;;;;;;41.70;21.73;;;;;;;;;;4347721;32;319227;-76
2024/01/22 04:14:19;;;;;;;74.80;36.47;;;;;;;;;;4333419;32;318751;-77
2024/01/22 04:16:47;;;;;;;155.57;73.07;;;;;;;;;;4342363;32;319216;-77
2024/01/22 04:19:13;;;;;;;132.00;63.10;;;;;;;;;;4335145;32;322138;-77
2024/01/22 04:21:48;;;;;;;84.63;40.67;;;;;;;;;;4344581;32;319907;-77
2024/01/22 04:24:20;;;;;;;56.60;29.53;;;;;;;;;;4342935;32;317972;-77
2024/01/22 04:26:46;;;;;;;46.37;26.47;;;;;;;;;;4356831;32;330830;-77
2024/01/22 04:29:13;;;;;;;51.23;27.33;;;;;;;;;;4350293;32;319682;-76
2024/01/22 04:31:40;;;;;;;62.47;34.20;;;;;;;;;;4360939;32;319131;-77
2024/01/22 04:34:07;;;;;;;87.57;44.10;;;;;;;;;;4362044;32;318553;-76
2024/01/22 04:36:34;;;;;;;108.50;53.60;;;;;;;;;;4342167;32;317745;-77
2024/01/22 04:39:02;;;;;;;130.37;58.40;;;;;;;;;;4361464;32;319954;-77
2024/01/22 04:41:35;;;;;;;81.73;40.60;;;;;;;;;;4351580;32;319803;-78
2024/01/22 04:44:06;;;;;;;67.60;34.03;;;;;;;;;;4348406;32;317858;-77
2024/01/22 04:46:33;;;;;;;98.23;49.77;;;;;;;;;;4337855;32;319061;-77
2024/01/22 04:49:00;;;;;;;90.00;48.97;;;;;;;;;;4356647;32;319563;-76
2024/01/22 04:51:27;;;;;;;90.13;46.33;;;;;;;;;;4348012;32;319257;-76
2024/01/22 04:53:53;;;;;;;83.40;44.10;;;;;;;;;;4361281;32;318889;-76
2024/01/22 04:56:21;;;;;;;74.77;37.97;;;;;;;;;;4351504;32;319308;-78
2024/01/22 04:58:49;;;;;;;53.60;29.13;;;;;;;;;;4358624;32;319946;-77
2024/01/22 05:01:16;;;;;;;57.63;31.17;;;;;;;;;;4350543;32;319585;-77
2024/01/22 05:03:43;;;;;;;121.97;55.20;;;;;;;;;;4360730;32;319337;-77
2024/01/22 05:06:13;;;;;;;106.80;54.53;;;;;;;;;;4354459;32;320265;-77
2024/01/22 05:08:41;;;;;;;109.13;56.33;;;;;;;;;;4327053;32;420954;-76
2024/01/22 05:11:08;;;;;;;115.37;61.10;;;;;;;;;;4346111;32;320179;-75
2024/01/22 05:13:35;;;;;;;93.13;47.87;;;;;;;;;;4336142;32;320485;-75
2024/01/22 05:16:06;;;;;;;71.93;35.40;;;;;;;;;;4358338;32;319464;-76
2024/01/22 05:18:32;;;;;;;72.00;33.70;;;;;;;;;;4334797;32;319224;-76
2024/01/22 05:20:59;;;;;;;65.83;35.50;;;;;;;;;;4357313;32;319452;-77
2024/01/22 05:23:27;;;;;;;56.53;30.97;;;;;;;;;;4351144;32;319226;-77
2024/01/22 05:25:54;;;;;;;64.43;34.60;;;;;;;;;;4360131;32;319326;-77
2024/01/22 05:28:22;;;;;;;67.87;35.70;;;;;;;;;;4344496;32;319078;-77
2024/01/22 05:30:50;;;;;;;66.40;31.67;;;;;;;;;;4358165;32;319283;-77
2024/01/22 05:33:18;;;;;;;68.17;38.37;;;;;;;;;;4351404;32;319026;-76
2024/01/22 05:35:45;;;;;;;65.27;35.10;;;;;;;;;;4361140;32;319335;-77
2024/01/22 05:38:12;;;;;;;64.83;31.03;;;;;;;;;;4344119;32;318979;-76
2024/01/22 05:40:39;;;;;;;62.93;33.33;;;;;;;;;;4349015;32;319334;-76
2024/01/22 05:43:06;;;;;;;58.13;27.47;;;;;;;;;;4361425;32;319165;-76
2024/01/22 05:45:34;;;;;;;57.03;28.20;;;;;;;;;;4350128;32;319281;-76
2024/01/22 05:48:01;;;;;;;33.83;20.57;;;;;;;;;;4359555;32;319232;-76
2024/01/22 05:50:44;;;;;;;32.90;18.50;;;;;;;;;;4334387;32;319012;-77
2024/01/22 05:53:11;;;;;;;41.00;18.07;;;;;;;;;;4344433;32;318610;-77
2024/01/22 05:55:49;;;;;;;41.60;18.53;;;;;;;;;;4357319;32;419914;-78
2024/01/22 05:58:18;;;;;;;51.00;24.70;;;;;;;;;;4363687;32;318719;-77
2024/01/22 06:00:47;;;;;;;78.33;38.60;;;;;;;;;;4371819;32;317461;-77
2024/01/22 06:03:15;;;;;;;92.67;45.50;;;;;;;;;;4375491;32;319435;-77
2024/01/22 06:05:48;;;;;;;94.57;47.23;;;;;;;;;;4392892;32;319330;-78
2024/01/22 06:08:16;;;;;;;109.90;55.13;;;;;;;;;;4395316;32;318692;-77
2024/01/22 06:10:45;;;;;;;114.87;57.70;;;;;;;;;;4402271;32;320485;-77
2024/01/22 06:13:15;;;;;;;146.13;62.30;;;;;;;;;;4407930;32;320270;-76
2024/01/22 06:15:44;;;;;;;115.93;58.13;;;;;;;;;;4395084;32;419653;-76
2024/01/22 06:18:11;;;;;;;115.27;54.87;;;;;;;;;;4403541;32;319896;-77
2024/01/22 06:20:39;;;;;;;120.13;54.47;;;;;;;;;;4374524;32;419609;-77
2024/01/22 06:23:07;;;;;;;132.03;56.07;;;;;;;;;;4406075;32;320283;-76
2024/01/22 06:25:37;;;;;;;100.83;52.17;;;;;;;;;;4395552;32;320314;-77
2024/01/22 06:28:06;;;;;;;107.20;51.17;;;;;;;;;;4406520;32;321411;-77
2024/01/22 06:30:36;;;;;;;99.07;46.20;;;;;;;;;;4382100;32;320399;-77
2024/01/22 06:33:04;;;;;;;92.73;44.37;;;;;;;;;;4401472;32;319156;-77
2024/01/22 06:35:30;;;;;;;96.90;47.00;;;;;;;;;;4398590;32;319115;-76
2024/01/22 06:37:59;;;;;;;98.73;51.83;;;;;;;;;;4407041;32;319399;-76
2024/01/22 06:40:30;;;;;;;112.10;59.70;;;;;;;;;;4390588;32;319423;-79
2024/01/22 06:42:57;;;;;;;143.40;64.93;;;;;;;;;;4410813;32;319286;-77
2024/01/22 06:45:24;;;;;;;119.30;65.73;;;;;;;;;;4378596;32;319753;-77
2024/01/22 06:47:52;;;;;;;139.47;69.00;;;;;;;;;;4401872;32;320528;-76
2024/01/22 06:50:20;;;;;;;142.13;67.17;;;;;;;;;;4382629;32;319570;-77
2024/01/22 06:52:48;;;;;;;143.50;69.80;;;;;;;;;;4402805;32;319853;-81
2024/01/22 06:55:15;;;;;;;150.47;75.47;;;;;;;;;;4397883;32;320306;-77
2024/01/22 06:57:45;;;;;;;148.37;75.83;;;;;;;;;;4405846;32;319626;-76
2024/01/22 07:00:15;;;;;;;175.33;79.77;;;;;;;;;;4397351;32;320374;-76
2024/01/22 07:02:43;;;;;;;154.90;76.57;;;;;;;;;;4400930;32;318826;-77
2024/01/22 07:05:11;;;;;;;144.27;77.03;;;;;;;;;;4400601;32;320407;-77
2024/01/22 07:07:40;;;;;;;155.20;83.53;;;;;;;;;;4389019;32;420958;-76
2024/01/22 07:10:10;;;;;;;170.13;83.07;;;;;;;;;;4405702;32;319870;-76
2024/01/22 07:12:40;;;;;;;158.57;78.03;;;;;;;;;;4373285;32;420718;-76
2024/01/22 07:15:12;;;;;;;120.97;68.70;;;;;;;;;;4394963;32;320351;-77
2024/01/22 07:17:44;;;;;;;131.97;75.57;;;;;;;;;;4364364;32;421012;-77
2024/01/22 07:20:14;;;;;;;145.80;73.70;;;;;;;;;;4391951;32;318653;-78
2024/01/22 07:22:42;;;;;;;103.27;54.33;;;;;;;;;;4385172;32;419203;-77
2024/01/22 07:25:11;;;;;;;88.07;43.97;;;;;;;;;;4405300;32;320636;-77
2024/01/22 07:27:39;;;;;;;78.03;44.60;;;;;;;;;;4392710;32;319079;-78
2024/01/22 07:30:11;;;;;;;60.43;33.07;;;;;;;;;;4392343;32;317739;-78
2024/01/22 07:32:41;;;;;;;54.73;29.00;;;;;;;;;;4381198;32;418954;-76
2024/01/22 07:35:10;;;;;;;47.77;26.40;;;;;;;;;;4400706;32;318755;-76
2024/01/22 07:37:41;;;;;;;48.50;25.70;;;;;;;;;;4396445;32;419498;-76
2024/01/22 07:40:10;;;;;;;49.27;27.67;;;;;;;;;;4409273;32;317718;-76
2024/01/22 07:42:42;;;;;;;55.30;28.27;;;;;;;;;;4394339;32;318619;-76
2024/01/22 07:45:11;;;;;;;50.43;31.53;;;;;;;;;;4392466;32;319607;-76
2024/01/22 07:47:39;;;;;;;64.67;32.70;;;;;;;;;;4359971;32;418509;-76
2024/01/22 07:50:10;;;;;;;47.20;28.83;;;;;;;;;;4394534;32;318846;-77
2024/01/22 07:52:40;;;;;;;44.93;26.50;;;;;;;;;;4385836;32;319100;-77
2024/01/22 07:55:08;;;;;;;52.67;27.20;;;;;;;;;;4407898;32;318440;-77
2024/01/22 07:57:39;;;;;;;38.00;21.13;;;;;;;;;;4365957;32;318813;-77
2024/01/22 08:00:11;;;;;;;45.13;21.40;;;;;;;;;;4385044;32;317489;-77
2024/01/22 08:02:42;;;;;;;39.60;19.10;;;;;;;;;;4376345;32;418294;-76
2024/01/22 08:05:13;;;;;;;40.33;22.63;;;;;;;;;;4399871;32;332477;-77
2024/01/22 08:07:42;;;;;;;36.93;22.00;;;;;;;;;;4393299;32;418163;-77
2024/01/22 08:10:09;;;;;;;40.20;21.80;;;;;;;;;;4398269;32;319005;-77
2024/01/22 08:12:37;;;;;;;50.80;25.60;;;;;;;;;;4374373;32;319217;-77
2024/01/22 08:15:05;;;;;;;30.30;17.53;;;;;;;;;;4391177;32;319340;-77
2024/01/22 08:17:35;;;;;;;28.13;17.57;;;;;;;;;;4387247;32;319502;-77
2024/01/22 08:20:07;;;;;;;57.00;28.93;;;;;;;;;;4394048;32;318813;-77
2024/01/22 08:22:37;;;;;;;27.87;15.80;;;;;;;;;;4381417;32;319737;-77
2024/01/22 08:25:07;;;;;;;30.67;16.23;;;;;;;;;;4407459;32;318604;-76
2024/01/22 08:27:40;;;;;;;28.53;15.17;;;;;;;;;;4390239;32;319238;-76
2024/01/22 08:30:11;;;;;;;36.10;15.40;;;;;;;;;;4405576;32;319409;-78
2024/01/22 08:32:39;;;;;;;33.20;18.70;;;;;;;;;;4388994;32;418227;-77
2024/01/22 08:35:09;;;;;;;32.50;16.67;;;;;;;;;;4401219;32;316745;-77
2024/01/22 08:37:39;;;;;;;28.60;13.57;;;;;;;;;;4397386;32;318382;-77
2024/01/22 08:40:10;;;;;;;30.63;15.60;;;;;;;;;;4408810;32;318207;-77
2024/01/22 08:42:38;;;;;;;30.37;15.33;;;;;;;;;;4373971;32;418659;-77
2024/01/22 08:45:09;;;;;;;25.83;15.83;;;;;;;;;;4406584;32;318405;-76
2024/01/22 08:47:36;;;;;;;30.93;17.87;;;;;;;;;;4399841;32;318297;-77
2024/01/22 08:50:05;;;;;;;33.50;17.23;;;;;;;;;;4406270;32;318475;-77
2024/01/22 08:52:35;;;;;;;46.23;29.83;;;;;;;;;;4389943;32;318068;-76
2024/01/22 08:55:05;;;;;;;29.40;16.00;;;;;;;;;;4394522;32;317618;-77
2024/01/22 08:57:33;;;;;;;23.60;14.93;;;;;;;;;;4374787;32;318289;-77
2024/01/22 09:00:00;;;;;;;17.00;10.60;;;;;;;;;;4405471;32;317925;-77
2024/01/22 09:02:27;;;;;;;20.70;10.00;;;;;;;;;;4382175;32;318214;-76
2024/01/22 09:04:55;;;;;;;21.33;11.90;;;;;;;;;;4406740;32;318357;-76
2024/01/22 09:07:24;;;;;;;19.87;12.97;;;;;;;;;;4393561;32;318429;-76
2024/01/22 09:09:52;;;;;;;22.20;13.27;;;;;;;;;;4409440;32;318202;-77
2024/01/22 09:12:19;;;;;;;34.17;19.50;;;;;;;;;;4392804;32;344428;-76
2024/01/22 09:14:47;;;;;;;49.57;34.97;;;;;;;;;;4391956;32;322319;-77
2024/01/22 09:17:16;;;;;;;31.10;12.87;;;;;;;;;;4397311;32;318226;-76
2024/01/22 09:19:43;;;;;;;20.07;12.63;;;;;;;;;;4404374;32;318287;-76
2024/01/22 09:22:11;;;;;;;23.27;13.70;;;;;;;;;;4399574;32;318275;-76
2024/01/22 09:24:38;;;;;;;219.83;134.23;;;;;;;;;;4384190;32;417245;-77
2024/01/22 09:27:10;;;;;;;65.00;40.33;;;;;;;;;;4407385;32;320297;-76
2024/01/22 09:29:38;;;;;;;32.30;20.43;;;;;;;;;;4391363;32;362533;-76
2024/01/22 09:32:06;;;;;;;34.40;23.37;;;;;;;;;;4407340;32;316557;-76
2024/01/22 09:34:37;;;;;;;44.53;26.93;;;;;;;;;;4376280;32;318324;-77
2024/01/22 09:37:05;;;;;;;59.70;33.57;;;;;;;;;;4382847;32;317680;-75
2024/01/22 09:39:34;;;;;;;30.13;18.03;;;;;;;;;;4372853;32;317647;-75
2024/01/22 09:42:05;;;;;;;45.67;21.73;;;;;;;;;;4382675;32;318393;-76
2024/01/22 09:44:34;;;;;;;36.10;16.57;;;;;;;;;;4383527;32;317211;-77
2024/01/22 09:47:06;;;;;;;67.33;36.60;;;;;;;;;;4376898;32;317995;-76
2024/01/22 09:49:34;;;;;;;49.60;21.00;;;;;;;;;;4397646;32;317760;-77
2024/01/22 09:52:04;;;;;;;103.37;58.93;;;;;;;;;;4395541;32;317991;-76
2024/01/22 09:54:31;;;;;;;39.43;17.70;;;;;;;;;;4393588;32;318780;-75
2024/01/22 09:57:02;;;;;;;171.07;88.80;;;;;;;;;;4392493;32;318135;-75
2024/01/22 09:59:30;;;;;;;35.97;23.03;;;;;;;;;;4401558;32;319605;-76
2024/01/22 10:01:59;;;;;;;28.43;16.57;;;;;;;;;;4397016;32;316606;-76
2024/01/22 10:04:27;;;;;;;37.93;19.87;;;;;;;;;;4395215;32;317651;-76
2024/01/22 10:06:55;;;;;;;33.20;15.93;;;;;;;;;;4386344;32;317639;-77
2024/01/22 10:09:22;;;;;;;35.33;18.80;;;;;;;;;;4395388;32;345652;-75
2024/01/22 10:11:49;;;;;;;30.17;17.07;;;;;;;;;;4400748;32;318332;-76
2024/01/22 10:14:30;;;;;;;27.60;12.20;;;;;;;;;;4381825;32;419199;-77
2024/01/22 10:17:15;;;;;;;22.57;10.20;;;;;;;;;;4308685;32;318371;-76
2024/01/22 10:19:45;;;;;;;20.93;10.50;;;;;;;;;;4358709;32;318440;-76
2024/01/22 10:22:15;;;;;;;19.80;8.97;;;;;;;;;;4350680;32;317674;-76
2024/01/22 10:24:42;;;;;;;15.97;8.37;;;;;;;;;;4362287;32;317556;-76
2024/01/22 10:27:16;;;;;;;21.93;10.73;;;;;;;;;;4345577;32;316991;-76
2024/01/22 10:29:47;;;;;;;16.83;10.23;;;;;;;;;;4357719;32;317892;-76
2024/01/22 10:32:21;;;;;;;19.57;10.53;;;;;;;;;;4351867;32;317714;-79
2024/01/22 10:34:53;;;;;;;35.13;14.70;;;;;;;;;;4363636;32;318380;-77
2024/01/22 10:37:20;;;;;;;34.97;18.30;;;;;;;;;;4342992;32;417220;-76
2024/01/22 10:40:00;;;;;;;16.07;10.60;;;;;;;;;;4361181;32;318295;-77
2024/01/22 10:42:28;;;;;;;20.27;9.53;;;;;;;;;;4350321;32;417548;-77
2024/01/22 10:44:57;;;;;;;19.13;10.43;;;;;;;;;;4348486;32;316222;-76
2024/01/22 10:47:28;;;;;;;15.10;8.73;;;;;;;;;;4352408;32;318046;-76
2024/01/22 10:49:57;;;;;;;21.90;9.93;;;;;;;;;;4351435;32;327547;-76
2024/01/22 10:52:26;;;;;;;23.63;9.80;;;;;;;;;;4358896;32;316487;-77
2024/01/22 10:54:53;;;;;;;14.73;9.83;;;;;;;;;;4350439;32;317200;-76
2024/01/22 10:57:29;;;;;;;19.67;7.90;;;;;;;;;;4356080;32;317314;-77
2024/01/22 11:00:00;;;;;;;17.20;10.40;;;;;;;;;;4350946;32;339847;-77
2024/01/22 11:02:33;;;;;;;15.57;8.17;;;;;;;;;;4359874;32;318205;-78
2024/01/22 11:05:06;;;;;;;12.27;7.80;;;;;;;;;;4346646;32;317185;-76
2024/01/22 11:07:36;;;;;;;19.33;9.87;;;;;;;;;;4361305;32;316983;-76
2024/01/22 11:10:07;;;;;;;13.77;7.63;;;;;;;;;;4350371;32;316907;-76
2024/01/22 11:12:42;;;;;;;10.70;6.57;;;;;;;;;;4360586;32;316363;-76
2024/01/22 11:15:10;;;;;;;10.97;6.20;;;;;;;;;;4340870;32;317129;-76
2024/01/22 11:17:38;;;;;;;12.97;6.23;;;;;;;;;;4359615;32;317165;-76
2024/01/22 11:20:20;;;;;;;9.60;6.93;;;;;;;;;;4349304;32;317130;-76
2024/01/22 11:23:00;;;;;;;16.57;6.90;;;;;;;;;;4359459;32;315478;-76
2024/01/22 11:25:28;;;;;;;18.60;7.00;;;;;;;;;;4347042;32;419099;-76
2024/01/22 11:28:01;;;;;;;16.20;7.17;;;;;;;;;;4336584;32;365736;-76
2024/01/22 11:30:29;;;;;;;13.00;5.60;;;;;;;;;;4345489;32;316237;-76
2024/01/22 11:32:58;;;;;;;14.10;6.67;;;;;;;;;;4348332;32;317547;-76
2024/01/22 11:35:36;;;;;;;9.47;5.93;;;;;;;;;;4355479;32;317187;-76
2024/01/22 11:38:06;;;;;;;14.37;7.33;;;;;;;;;;4346727;32;315860;-77
2024/01/22 11:40:49;;;;;;;22.20;8.30;;;;;;;;;;4352130;32;317227;-77
2024/01/22 11:43:18;;;;;;;15.27;6.47;;;;;;;;;;4345387;32;317241;-76
2024/01/22 11:45:51;;;;;;;18.57;7.23;;;;;;;;;;4361357;32;317172;-76
2024/01/22 11:48:20;;;;;;;11.27;7.17;;;;;;;;;;4347299;32;416319;-76
2024/01/22 11:50:58;;;;;;;13.63;6.63;;;;;;;;;;4392137;32;317189;-76
2024/01/22 11:53:28;;;;;;;21.47;6.77;;;;;;;;;;4383918;32;416565;-76
2024/01/22 11:56:01;;;;;;;15.47;8.00;;;;;;;;;;4397590;32;317201;-76
2024/01/22 11:58:28;;;;;;;13.20;8.23;;;;;;;;;;4392211;32;317407;-77
2024/01/22 12:00:56;;;;;;;11.20;6.40;;;;;;;;;;4379917;32;317288;-76
2024/01/22 12:03:26;;;;;;;14.43;10.07;;;;;;;;;;4401180;32;315942;-76
2024/01/22 12:05:59;;;;;;;14.83;8.40;;;;;;;;;;4395217;32;317483;-75
2024/01/22 12:08:27;;;;;;;26.07;16.67;;;;;;;;;;4403335;32;317091;-76
2024/01/22 12:10:56;;;;;;;15.87;9.33;;;;;;;;;;4370683;32;318532;-77
2024/01/22 12:13:25;;;;;;;79.63;25.27;;;;;;;;;;4338492;32;316520;-76
2024/01/22 12:15:58;;;;;;;158.53;58.07;;;;;;;;;;4375872;32;317663;-75
2024/01/22 12:18:42;;;;;;;29.33;14.63;;;;;;;;;;4352698;32;418313;-76
2024/01/22 12:21:20;;;;;;;20.67;9.77;;;;;;;;;;4384603;32;317909;-77
2024/01/22 12:23:48;;;;;;;131.53;31.97;;;;;;;;;;4402544;32;316800;-76
2024/01/22 12:26:22;;;;;;;47.07;15.90;;;;;;;;;;4398357;32;319101;-75
2024/01/22 12:28:51;;;;;;;41.53;13.93;;;;;;;;;;4370702;32;318153;-75
2024/01/22 12:31:21;;;;;;;28.77;11.63;;;;;;;;;;4379968;32;419220;-75
2024/01/22 12:33:56;;;;;;;95.73;41.47;;;;;;;;;;4404702;32;316614;-76
2024/01/22 12:36:29;;;;;;;23.57;13.47;;;;;;;;;;4348431;32;417460;-77
2024/01/22 12:39:03;;;;;;;37.13;13.07;;;;;;;;;;4366274;32;317928;-76
2024/01/22 12:41:35;;;;;;;27.63;16.73;;;;;;;;;;4373276;32;317533;-77
2024/01/22 12:44:02;;;;;;;57.70;28.80;;;;;;;;;;4387871;32;317469;-77
2024/01/22 12:46:31;;;;;;;76.93;44.40;;;;;;;;;;4390355;32;332026;-77
2024/01/22 12:51:38;;;;;;;25.50;11.40;;;;;;;;;;4334461;32;318321;-78
2024/01/22 12:54:16;;;;;;;14.80;9.03;;;;;;;;;;4322254;32;318581;-77
2024/01/22 12:56:43;;;;;;;439.07;301.73;;;;;;;;;;4333997;32;315683;-76
2024/01/22 12:59:10;;;;;;;35.13;25.73;;;;;;;;;;4309503;32;319702;-76
2024/01/22 13:01:45;;;;;;;24.13;11.83;;;;;;;;;;4345762;32;317980;-75
2024/01/22 13:04:16;;;;;;;16.73;10.30;;;;;;;;;;4333956;32;318004;-76
2024/01/22 13:06:47;;;;;;;29.70;11.43;;;;;;;;;;4347479;32;316655;-76
2024/01/22 13:09:15;;;;;;;27.40;12.97;;;;;;;;;;4297136;32;347755;-76
2024/01/22 13:11:44;;;;;;;24.90;9.60;;;;;;;;;;4332705;32;317783;-76
2024/01/22 13:14:13;;;;;;;15.63;9.50;;;;;;;;;;4332979;32;315773;-77
2024/01/22 13:16:40;;;;;;;19.53;10.40;;;;;;;;;;4326343;32;315706;-76
2024/01/22 13:19:11;;;;;;;18.90;10.57;;;;;;;;;;4302632;32;317708;-77
2024/01/22 13:21:47;;;;;;;397.17;109.77;;;;;;;;;;4303115;33;317540;-76
2024/01/22 13:24:19;;;;;;;88.30;30.57;;;;;;;;;;4302110;32;318826;-76
2024/01/22 13:26:47;;;;;;;40.40;14.53;;;;;;;;;;4317358;32;317349;-77
2024/01/22 13:29:16;;;;;;;17.40;9.97;;;;;;;;;;4290726;32;317508;-76
2024/01/22 13:31:53;;;;;;;21.80;11.10;;;;;;;;;;4331598;32;317165;-77
2024/01/22 13:34:33;;;;;;;18.63;9.47;;;;;;;;;;4283662;32;417627;-76
2024/01/22 13:37:10;;;;;;;16.70;10.60;;;;;;;;;;4290467;33;315677;-76
2024/01/22 13:39:44;;;;;;;24.63;15.77;;;;;;;;;;4330499;33;317845;-76
2024/01/22 13:42:13;;;;;;;20.03;10.17;;;;;;;;;;4305177;32;326803;-76
2024/01/22 13:44:39;;;;;;;33.03;17.80;;;;;;;;;;4324307;32;316677;-76
2024/01/22 13:47:09;;;;;;;95.00;55.60;;;;;;;;;;4325124;32;332730;-76
2024/01/22 13:49:39;;;;;;;378.47;216.60;;;;;;;;;;4342623;32;347647;-76
2024/01/22 13:52:06;;;;;;;112.60;62.37;;;;;;;;;;4305522;32;338014;-76
2024/01/22 13:54:37;;;;;;;42.93;22.93;;;;;;;;;;4344169;32;318823;-76
2024/01/22 13:57:07;;;;;;;45.53;23.30;;;;;;;;;;4304505;32;316920;-76
2024/01/22 13:59:37;;;;;;;51.13;21.47;;;;;;;;;;4315801;32;317344;-76
2024/01/22 14:02:07;;;;;;;42.87;22.27;;;;;;;;;;4314130;32;317759;-77
2024/01/22 14:04:34;;;;;;;21.93;14.70;;;;;;;;;;4319848;32;316704;-77
2024/01/22 14:07:06;;;;;;;21.17;13.73;;;;;;;;;;4327107;32;317644;-77
2024/01/22 14:12:24;;;;;;;23.27;10.50;;;;;;;;;;4334637;32;346984;-76
2024/01/22 14:14:55;;;;;;;18.50;10.23;;;;;;;;;;4359532;32;317782;-75
2024/01/22 14:17:33;;;;;;;20.50;12.33;;;;;;;;;;4294322;32;417027;-75
2024/01/22 14:20:01;;;;;;;27.87;14.83;;;;;;;;;;4305389;32;316884;-79
2024/01/22 14:22:30;;;;;;;30.23;14.70;;;;;;;;;;4324184;32;318302;-76